sensor_id;sensor_type;location;lat;lon;timestamp;P1;durP1;ratioP1;P2;durP2;ratioP2
34924;SDS011;21130;51.728;8.748;2023-05-10T00:01:44;26.77;;;22.50;;
34924;SDS011;21130;51.728;8.748;2023-05-10T00:04:10;24.80;;;22.30;;
34924;SDS011;21130;51.728;8.748;2023-05-10T00:06:38;22.85;;;20.55;;
34924;SDS011;21130;51.728;8.748;2023-05-10T00:09:05;25.05;;;22.48;;
34924;SDS011;21130;51.728;8.748;2023-05-10T00:11:33;25.90;;;22.98;;
34924;SDS011;21130;51.728;8.748;2023-05-10T00:14:00;24.95;;;22.30;;
34924;SDS011;21130;51.728;8.748;2023-05-10T00:16:26;26.00;;;22.42;;
34924;SDS011;21130;51.728;8.748;2023-05-10T00:18:52;24.67;;;21.95;;
34924;SDS011;21130;51.728;8.748;2023-05-10T00:21:19;22.90;;;20.60;;
34924;SDS011;21130;51.728;8.748;2023-05-10T00:23:47;22.15;;;19.85;;
34924;SDS011;21130;51.728;8.748;2023-05-10T00:26:13;21.77;;;19.58;;
34924;SDS011;21130;51.728;8.748;2023-05-10T00:28:40;23.50;;;20.95;;
34924;SDS011;21130;51.728;8.748;2023-05-10T00:31:09;23.73;;;21.15;;
34924;SDS011;21130;51.728;8.748;2023-05-10T00:33:35;23.08;;;20.58;;
34924;SDS011;21130;51.728;8.748;2023-05-10T00:36:01;22.95;;;19.52;;
34924;SDS011;21130;51.728;8.748;2023-05-10T00:38:28;26.25;;;23.48;;
34924;SDS011;21130;51.728;8.748;2023-05-10T00:40:56;25.90;;;23.20;;
34924;SDS011;21130;51.728;8.748;2023-05-10T00:43:22;25.98;;;23.13;;
34924;SDS011;21130;51.728;8.748;2023-05-10T00:45:48;24.27;;;21.33;;
34924;SDS011;21130;51.728;8.748;2023-05-10T00:48:15;24.55;;;21.95;;
34924;SDS011;21130;51.728;8.748;2023-05-10T00:50:42;24.38;;;21.65;;
34924;SDS011;21130;51.728;8.748;2023-05-10T00:53:09;24.73;;;21.98;;
34924;SDS011;21130;51.728;8.748;2023-05-10T00:55:36;26.80;;;23.80;;
34924;SDS011;21130;51.728;8.748;2023-05-10T00:58:04;29.40;;;25.83;;
34924;SDS011;21130;51.728;8.748;2023-05-10T01:00:31;30.25;;;25.67;;
34924;SDS011;21130;51.728;8.748;2023-05-10T01:02:59;27.25;;;24.33;;
34924;SDS011;21130;51.728;8.748;2023-05-10T01:05:26;30.90;;;26.70;;
34924;SDS011;21130;51.728;8.748;2023-05-10T01:07:53;30.20;;;26.58;;
34924;SDS011;21130;51.728;8.748;2023-05-10T01:10:19;28.70;;;25.52;;
34924;SDS011;21130;51.728;8.748;2023-05-10T01:12:46;29.13;;;25.05;;
34924;SDS011;21130;51.728;8.748;2023-05-10T01:15:14;27.30;;;24.40;;
34924;SDS011;21130;51.728;8.748;2023-05-10T01:17:43;22.83;;;20.45;;
34924;SDS011;21130;51.728;8.748;2023-05-10T01:20:11;21.30;;;19.10;;
34924;SDS011;21130;51.728;8.748;2023-05-10T01:25:55;19.25;;;17.27;;
34924;SDS011;21130;51.728;8.748;2023-05-10T01:28:39;17.48;;;15.70;;
34924;SDS011;21130;51.728;8.748;2023-05-10T01:31:37;17.35;;;15.70;;
34924;SDS011;21130;51.728;8.748;2023-05-10T01:34:23;16.52;;;14.98;;
34924;SDS011;21130;51.728;8.748;2023-05-10T01:36:54;16.40;;;14.80;;
34924;SDS011;21130;51.728;8.748;2023-05-10T01:39:29;16.58;;;14.88;;
34924;SDS011;21130;51.728;8.748;2023-05-10T01:42:03;15.10;;;13.57;;
34924;SDS011;21130;51.728;8.748;2023-05-10T01:44:37;13.60;;;12.30;;
34924;SDS011;21130;51.728;8.748;2023-05-10T01:47:07;13.13;;;11.68;;
34924;SDS011;21130;51.728;8.748;2023-05-10T01:49:37;12.75;;;11.63;;
34924;SDS011;21130;51.728;8.748;2023-05-10T01:52:08;12.10;;;10.90;;
34924;SDS011;21130;51.728;8.748;2023-05-10T01:54:36;9.57;;;8.57;;
34924;SDS011;21130;51.728;8.748;2023-05-10T01:57:07;7.10;;;6.50;;
34924;SDS011;21130;51.728;8.748;2023-05-10T01:59:37;7.35;;;5.35;;
34924;SDS011;21130;51.728;8.748;2023-05-10T02:02:07;5.85;;;5.35;;
34924;SDS011;21130;51.728;8.748;2023-05-10T02:04:36;8.20;;;6.28;;
34924;SDS011;21130;51.728;8.748;2023-05-10T02:07:05;7.05;;;6.45;;
34924;SDS011;21130;51.728;8.748;2023-05-10T02:09:34;7.70;;;6.97;;
34924;SDS011;21130;51.728;8.748;2023-05-10T02:12:02;9.15;;;8.27;;
34924;SDS011;21130;51.728;8.748;2023-05-10T02:14:32;13.10;;;8.77;;
34924;SDS011;21130;51.728;8.748;2023-05-10T02:17:02;10.52;;;9.52;;
34924;SDS011;21130;51.728;8.748;2023-05-10T02:19:32;10.98;;;9.85;;
34924;SDS011;21130;51.728;8.748;2023-05-10T02:22:00;11.00;;;9.90;;
34924;SDS011;21130;51.728;8.748;2023-05-10T02:24:27;11.57;;;10.43;;
34924;SDS011;21130;51.728;8.748;2023-05-10T02:26:54;12.38;;;11.05;;
34924;SDS011;21130;51.728;8.748;2023-05-10T02:29:22;12.07;;;10.88;;
34924;SDS011;21130;51.728;8.748;2023-05-10T02:31:51;12.13;;;10.85;;
34924;SDS011;21130;51.728;8.748;2023-05-10T02:34:20;13.60;;;12.20;;
34924;SDS011;21130;51.728;8.748;2023-05-10T02:36:49;14.10;;;12.63;;
34924;SDS011;21130;51.728;8.748;2023-05-10T02:39:17;16.17;;;14.48;;
34924;SDS011;21130;51.728;8.748;2023-05-10T02:41:45;14.20;;;12.73;;
34924;SDS011;21130;51.728;8.748;2023-05-10T02:44:13;13.23;;;11.82;;
34924;SDS011;21130;51.728;8.748;2023-05-10T02:46:41;13.48;;;12.10;;
34924;SDS011;21130;51.728;8.748;2023-05-10T02:49:08;13.73;;;11.68;;
34924;SDS011;21130;51.728;8.748;2023-05-10T02:51:35;12.68;;;11.38;;
34924;SDS011;21130;51.728;8.748;2023-05-10T02:54:09;13.73;;;12.15;;
34924;SDS011;21130;51.728;8.748;2023-05-10T02:56:42;14.63;;;12.43;;
34924;SDS011;21130;51.728;8.748;2023-05-10T02:59:13;13.50;;;12.10;;
34924;SDS011;21130;51.728;8.748;2023-05-10T03:01:39;13.95;;;12.45;;
34924;SDS011;21130;51.728;8.748;2023-05-10T03:04:06;14.18;;;12.77;;
34924;SDS011;21130;51.728;8.748;2023-05-10T03:06:32;13.65;;;12.25;;
34924;SDS011;21130;51.728;8.748;2023-05-10T03:08:59;13.23;;;11.93;;
34924;SDS011;21130;51.728;8.748;2023-05-10T03:11:31;14.40;;;12.13;;
34924;SDS011;21130;51.728;8.748;2023-05-10T03:14:10;13.45;;;12.05;;
34924;SDS011;21130;51.728;8.748;2023-05-10T03:16:44;13.20;;;11.90;;
34924;SDS011;21130;51.728;8.748;2023-05-10T03:19:14;12.45;;;11.23;;
34924;SDS011;21130;51.728;8.748;2023-05-10T03:21:45;12.88;;;11.57;;
34924;SDS011;21130;51.728;8.748;2023-05-10T03:24:15;12.35;;;10.90;;
34924;SDS011;21130;51.728;8.748;2023-05-10T03:26:46;13.35;;;11.95;;
34924;SDS011;21130;51.728;8.748;2023-05-10T03:29:13;13.20;;;11.90;;
34924;SDS011;21130;51.728;8.748;2023-05-10T03:31:41;13.32;;;11.93;;
34924;SDS011;21130;51.728;8.748;2023-05-10T03:34:07;11.95;;;10.85;;
34924;SDS011;21130;51.728;8.748;2023-05-10T03:36:34;12.88;;;11.77;;
34924;SDS011;21130;51.728;8.748;2023-05-10T03:39:01;12.40;;;10.98;;
34924;SDS011;21130;51.728;8.748;2023-05-10T03:41:27;12.07;;;10.93;;
34924;SDS011;21130;51.728;8.748;2023-05-10T03:43:55;12.10;;;10.95;;
34924;SDS011;21130;51.728;8.748;2023-05-10T03:46:21;10.90;;;9.90;;
34924;SDS011;21130;51.728;8.748;2023-05-10T03:48:48;11.27;;;10.25;;
34924;SDS011;21130;51.728;8.748;2023-05-10T03:51:14;10.93;;;9.93;;
34924;SDS011;21130;51.728;8.748;2023-05-10T03:53:40;10.50;;;9.60;;
34924;SDS011;21130;51.728;8.748;2023-05-10T03:56:07;10.32;;;9.32;;
34924;SDS011;21130;51.728;8.748;2023-05-10T03:58:33;9.75;;;8.80;;
34924;SDS011;21130;51.728;8.748;2023-05-10T04:01:01;9.52;;;8.63;;
34924;SDS011;21130;51.728;8.748;2023-05-10T04:03:28;10.35;;;9.43;;
34924;SDS011;21130;51.728;8.748;2023-05-10T04:05:58;11.45;;;10.35;;
34924;SDS011;21130;51.728;8.748;2023-05-10T04:08:25;11.15;;;10.05;;
34924;SDS011;21130;51.728;8.748;2023-05-10T04:10:52;10.65;;;9.65;;
34924;SDS011;21130;51.728;8.748;2023-05-10T04:13:18;9.75;;;8.75;;
34924;SDS011;21130;51.728;8.748;2023-05-10T04:15:48;10.15;;;9.15;;
34924;SDS011;21130;51.728;8.748;2023-05-10T04:18:15;11.30;;;9.77;;
34924;SDS011;21130;51.728;8.748;2023-05-10T04:20:42;10.70;;;9.43;;
34924;SDS011;21130;51.728;8.748;2023-05-10T04:23:08;12.23;;;10.88;;
34924;SDS011;21130;51.728;8.748;2023-05-10T04:25:35;10.68;;;9.63;;
34924;SDS011;21130;51.728;8.748;2023-05-10T04:28:01;14.07;;;11.32;;
34924;SDS011;21130;51.728;8.748;2023-05-10T04:30:27;12.93;;;11.30;;
34924;SDS011;21130;51.728;8.748;2023-05-10T04:32:54;13.55;;;10.98;;
34924;SDS011;21130;51.728;8.748;2023-05-10T04:35:22;12.38;;;11.07;;
34924;SDS011;21130;51.728;8.748;2023-05-10T04:37:49;13.15;;;10.93;;
34924;SDS011;21130;51.728;8.748;2023-05-10T04:40:15;13.07;;;11.73;;
34924;SDS011;21130;51.728;8.748;2023-05-10T04:42:42;12.30;;;11.05;;
34924;SDS011;21130;51.728;8.748;2023-05-10T04:45:10;12.02;;;10.77;;
34924;SDS011;21130;51.728;8.748;2023-05-10T04:47:36;12.00;;;10.80;;
34924;SDS011;21130;51.728;8.748;2023-05-10T04:50:03;9.43;;;8.52;;
34924;SDS011;21130;51.728;8.748;2023-05-10T04:52:31;8.05;;;7.28;;
34924;SDS011;21130;51.728;8.748;2023-05-10T04:54:57;6.60;;;6.05;;
34924;SDS011;21130;51.728;8.748;2023-05-10T04:57:24;5.25;;;4.75;;
34924;SDS011;21130;51.728;8.748;2023-05-10T04:59:50;5.10;;;4.70;;
34924;SDS011;21130;51.728;8.748;2023-05-10T05:02:17;4.43;;;4.03;;
34924;SDS011;21130;51.728;8.748;2023-05-10T05:04:44;4.18;;;3.88;;
34924;SDS011;21130;51.728;8.748;2023-05-10T05:07:10;4.20;;;3.90;;
34924;SDS011;21130;51.728;8.748;2023-05-10T05:09:38;4.47;;;4.07;;
34924;SDS011;21130;51.728;8.748;2023-05-10T05:12:04;4.50;;;4.10;;
34924;SDS011;21130;51.728;8.748;2023-05-10T05:14:31;4.30;;;4.00;;
34924;SDS011;21130;51.728;8.748;2023-05-10T05:16:58;4.30;;;3.90;;
34924;SDS011;21130;51.728;8.748;2023-05-10T05:19:24;4.05;;;3.75;;
34924;SDS011;21130;51.728;8.748;2023-05-10T05:21:50;5.03;;;4.57;;
34924;SDS011;21130;51.728;8.748;2023-05-10T05:24:17;5.22;;;4.82;;
34924;SDS011;21130;51.728;8.748;2023-05-10T05:26:45;5.90;;;5.38;;
34924;SDS011;21130;51.728;8.748;2023-05-10T05:29:11;5.95;;;5.45;;
34924;SDS011;21130;51.728;8.748;2023-05-10T05:31:37;6.30;;;5.70;;
34924;SDS011;21130;51.728;8.748;2023-05-10T05:34:04;6.85;;;5.80;;
34924;SDS011;21130;51.728;8.748;2023-05-10T05:36:30;8.10;;;5.60;;
34924;SDS011;21130;51.728;8.748;2023-05-10T05:38:57;6.13;;;5.63;;
34924;SDS011;21130;51.728;8.748;2023-05-10T05:41:24;6.32;;;5.72;;
34924;SDS011;21130;51.728;8.748;2023-05-10T05:43:52;6.70;;;4.90;;
34924;SDS011;21130;51.728;8.748;2023-05-10T05:46:18;5.85;;;5.25;;
34924;SDS011;21130;51.728;8.748;2023-05-10T05:48:45;5.72;;;5.22;;
34924;SDS011;21130;51.728;8.748;2023-05-10T05:51:11;6.47;;;5.88;;
34924;SDS011;21130;51.728;8.748;2023-05-10T05:53:37;7.75;;;6.82;;
34924;SDS011;21130;51.728;8.748;2023-05-10T05:56:04;7.80;;;7.18;;
34924;SDS011;21130;51.728;8.748;2023-05-10T05:58:30;7.85;;;7.15;;
34924;SDS011;21130;51.728;8.748;2023-05-10T06:01:00;7.47;;;6.88;;
34924;SDS011;21130;51.728;8.748;2023-05-10T06:03:26;8.32;;;7.70;;
34924;SDS011;21130;51.728;8.748;2023-05-10T06:05:53;8.90;;;8.10;;
34924;SDS011;21130;51.728;8.748;2023-05-10T06:08:19;7.85;;;6.97;;
34924;SDS011;21130;51.728;8.748;2023-05-10T06:10:46;7.72;;;6.65;;
34924;SDS011;21130;51.728;8.748;2023-05-10T06:13:12;6.65;;;5.97;;
34924;SDS011;21130;51.728;8.748;2023-05-10T06:15:40;8.10;;;6.10;;
34924;SDS011;21130;51.728;8.748;2023-05-10T06:18:08;7.90;;;5.53;;
34924;SDS011;21130;51.728;8.748;2023-05-10T06:20:34;5.55;;;5.05;;
34924;SDS011;21130;51.728;8.748;2023-05-10T06:23:01;4.95;;;4.50;;
34924;SDS011;21130;51.728;8.748;2023-05-10T06:25:27;5.57;;;5.00;;
34924;SDS011;21130;51.728;8.748;2023-05-10T06:27:53;5.15;;;4.68;;
34924;SDS011;21130;51.728;8.748;2023-05-10T06:30:23;5.07;;;3.92;;
34924;SDS011;21130;51.728;8.748;2023-05-10T06:32:52;5.93;;;3.80;;
34924;SDS011;21130;51.728;8.748;2023-05-10T06:35:20;3.70;;;3.40;;
34924;SDS011;21130;51.728;8.748;2023-05-10T06:37:47;4.07;;;3.78;;
34924;SDS011;21130;51.728;8.748;2023-05-10T06:40:14;4.30;;;3.90;;
34924;SDS011;21130;51.728;8.748;2023-05-10T06:42:40;4.30;;;3.90;;
34924;SDS011;21130;51.728;8.748;2023-05-10T06:45:07;4.85;;;4.45;;
34924;SDS011;21130;51.728;8.748;2023-05-10T06:47:34;5.43;;;4.93;;
34924;SDS011;21130;51.728;8.748;2023-05-10T06:50:01;5.20;;;4.80;;
34924;SDS011;21130;51.728;8.748;2023-05-10T06:52:29;4.80;;;4.35;;
34924;SDS011;21130;51.728;8.748;2023-05-10T06:54:55;4.80;;;4.40;;
34924;SDS011;21130;51.728;8.748;2023-05-10T06:57:22;5.38;;;4.93;;
34924;SDS011;21130;51.728;8.748;2023-05-10T06:59:49;5.32;;;4.82;;
34924;SDS011;21130;51.728;8.748;2023-05-10T07:02:16;5.22;;;4.82;;
34924;SDS011;21130;51.728;8.748;2023-05-10T07:04:43;4.63;;;4.22;;
34924;SDS011;21130;51.728;8.748;2023-05-10T07:07:09;4.93;;;4.45;;
34924;SDS011;21130;51.728;8.748;2023-05-10T07:09:37;4.93;;;4.43;;
34924;SDS011;21130;51.728;8.748;2023-05-10T07:12:04;5.32;;;4.82;;
34924;SDS011;21130;51.728;8.748;2023-05-10T07:14:30;6.32;;;4.50;;
34924;SDS011;21130;51.728;8.748;2023-05-10T07:16:56;5.78;;;4.82;;
34924;SDS011;21130;51.728;8.748;2023-05-10T07:19:24;5.07;;;4.57;;
34924;SDS011;21130;51.728;8.748;2023-05-10T07:21:50;5.20;;;4.80;;
34924;SDS011;21130;51.728;8.748;2023-05-10T07:24:16;5.78;;;4.93;;
34924;SDS011;21130;51.728;8.748;2023-05-10T07:26:44;6.72;;;5.50;;
34924;SDS011;21130;51.728;8.748;2023-05-10T07:29:11;68.40;;;11.75;;
34924;SDS011;21130;51.728;8.748;2023-05-10T07:31:37;13.75;;;5.60;;
34924;SDS011;21130;51.728;8.748;2023-05-10T07:34:04;4.00;;;3.70;;
34924;SDS011;21130;51.728;8.748;2023-05-10T07:36:30;4.70;;;4.30;;
34924;SDS011;21130;51.728;8.748;2023-05-10T07:38:57;4.93;;;4.30;;
34924;SDS011;21130;51.728;8.748;2023-05-10T07:41:23;4.55;;;4.15;;
34924;SDS011;21130;51.728;8.748;2023-05-10T07:43:51;5.05;;;4.30;;
34924;SDS011;21130;51.728;8.748;2023-05-10T07:46:18;6.47;;;4.60;;
34924;SDS011;21130;51.728;8.748;2023-05-10T07:48:44;4.57;;;4.18;;
34924;SDS011;21130;51.728;8.748;2023-05-10T07:51:11;5.65;;;4.50;;
34924;SDS011;21130;51.728;8.748;2023-05-10T07:53:37;5.65;;;5.10;;
34924;SDS011;21130;51.728;8.748;2023-05-10T07:56:19;5.40;;;4.90;;
34924;SDS011;21130;51.728;8.748;2023-05-10T07:58:51;7.22;;;4.88;;
34924;SDS011;21130;51.728;8.748;2023-05-10T08:01:17;6.40;;;5.32;;
34924;SDS011;21130;51.728;8.748;2023-05-10T08:03:45;8.82;;;6.20;;
34924;SDS011;21130;51.728;8.748;2023-05-10T08:06:11;7.72;;;6.50;;
34924;SDS011;21130;51.728;8.748;2023-05-10T08:08:38;7.22;;;6.00;;
34924;SDS011;21130;51.728;8.748;2023-05-10T08:11:04;10.13;;;7.13;;
34924;SDS011;21130;51.728;8.748;2023-05-10T08:13:30;9.40;;;7.13;;
34924;SDS011;21130;51.728;8.748;2023-05-10T08:15:58;9.00;;;7.68;;
34924;SDS011;21130;51.728;8.748;2023-05-10T08:18:25;8.90;;;7.43;;
34924;SDS011;21130;51.728;8.748;2023-05-10T08:20:52;7.97;;;7.18;;
34924;SDS011;21130;51.728;8.748;2023-05-10T08:23:18;9.43;;;8.32;;
34924;SDS011;21130;51.728;8.748;2023-05-10T08:25:45;10.13;;;8.80;;
34924;SDS011;21130;51.728;8.748;2023-05-10T08:28:12;9.82;;;8.82;;
34924;SDS011;21130;51.728;8.748;2023-05-10T08:30:38;12.55;;;10.82;;
34924;SDS011;21130;51.728;8.748;2023-05-10T08:33:06;13.70;;;12.32;;
34924;SDS011;21130;51.728;8.748;2023-05-10T08:35:32;21.40;;;18.15;;
34924;SDS011;21130;51.728;8.748;2023-05-10T08:38:00;23.58;;;18.15;;
34924;SDS011;21130;51.728;8.748;2023-05-10T08:40:26;22.63;;;18.10;;
34924;SDS011;21130;51.728;8.748;2023-05-10T08:42:54;25.73;;;19.40;;
34924;SDS011;21130;51.728;8.748;2023-05-10T08:45:24;25.13;;;20.23;;
34924;SDS011;21130;51.728;8.748;2023-05-10T08:47:58;25.38;;;19.88;;
34924;SDS011;21130;51.728;8.748;2023-05-10T08:50:28;23.67;;;18.75;;
34924;SDS011;21130;51.728;8.748;2023-05-10T08:52:57;25.58;;;19.92;;
34924;SDS011;21130;51.728;8.748;2023-05-10T08:55:26;23.05;;;20.45;;
34924;SDS011;21130;51.728;8.748;2023-05-10T08:57:53;26.33;;;20.98;;
34924;SDS011;21130;51.728;8.748;2023-05-10T09:00:20;25.02;;;20.35;;
34924;SDS011;21130;51.728;8.748;2023-05-10T09:02:48;26.75;;;20.15;;
34924;SDS011;21130;51.728;8.748;2023-05-10T09:05:16;26.67;;;20.48;;
34924;SDS011;21130;51.728;8.748;2023-05-10T09:07:44;24.40;;;19.33;;
34924;SDS011;21130;51.728;8.748;2023-05-10T09:10:11;23.55;;;19.27;;
34924;SDS011;21130;51.728;8.748;2023-05-10T09:12:39;22.35;;;19.88;;
34924;SDS011;21130;51.728;8.748;2023-05-10T09:15:05;23.30;;;20.75;;
34924;SDS011;21130;51.728;8.748;2023-05-10T09:17:36;21.83;;;19.35;;
34924;SDS011;21130;51.728;8.748;2023-05-10T09:20:05;25.63;;;21.58;;
34924;SDS011;21130;51.728;8.748;2023-05-10T09:22:32;25.02;;;20.58;;
34924;SDS011;21130;51.728;8.748;2023-05-10T09:25:07;25.00;;;21.63;;
34924;SDS011;21130;51.728;8.748;2023-05-10T09:27:36;26.73;;;20.90;;
34924;SDS011;21130;51.728;8.748;2023-05-10T09:30:03;37.05;;;25.02;;
34924;SDS011;21130;51.728;8.748;2023-05-10T09:32:36;26.70;;;22.38;;
34924;SDS011;21130;51.728;8.748;2023-05-10T09:35:10;25.88;;;21.77;;
34924;SDS011;21130;51.728;8.748;2023-05-10T09:37:38;54.05;;;24.58;;
34924;SDS011;21130;51.728;8.748;2023-05-10T09:40:10;27.08;;;21.35;;
34924;SDS011;21130;51.728;8.748;2023-05-10T09:42:38;35.55;;;22.58;;
34924;SDS011;21130;51.728;8.748;2023-05-10T09:45:05;48.00;;;25.40;;
34924;SDS011;21130;51.728;8.748;2023-05-10T09:47:33;75.82;;;28.60;;
34924;SDS011;21130;51.728;8.748;2023-05-10T09:50:00;27.67;;;22.63;;
34924;SDS011;21130;51.728;8.748;2023-05-10T09:52:29;23.92;;;20.27;;
34924;SDS011;21130;51.728;8.748;2023-05-10T09:54:56;22.52;;;20.05;;
34924;SDS011;21130;51.728;8.748;2023-05-10T09:57:24;24.00;;;19.95;;
34924;SDS011;21130;51.728;8.748;2023-05-10T09:59:51;38.97;;;21.63;;
34924;SDS011;21130;51.728;8.748;2023-05-10T10:02:19;73.78;;;25.60;;
34924;SDS011;21130;51.728;8.748;2023-05-10T10:04:45;36.40;;;20.00;;
34924;SDS011;21130;51.728;8.748;2023-05-10T10:07:17;22.90;;;19.73;;
34924;SDS011;21130;51.728;8.748;2023-05-10T10:09:48;23.52;;;20.90;;
34924;SDS011;21130;51.728;8.748;2023-05-10T10:12:15;24.58;;;20.73;;
34924;SDS011;21130;51.728;8.748;2023-05-10T10:14:43;24.90;;;21.33;;
34924;SDS011;21130;51.728;8.748;2023-05-10T10:17:11;24.40;;;20.55;;
34924;SDS011;21130;51.728;8.748;2023-05-10T10:19:39;23.08;;;20.65;;
34924;SDS011;21130;51.728;8.748;2023-05-10T10:22:07;23.17;;;19.10;;
34924;SDS011;21130;51.728;8.748;2023-05-10T10:24:36;25.73;;;21.27;;
34924;SDS011;21130;51.728;8.748;2023-05-10T10:27:04;24.33;;;20.90;;
34924;SDS011;21130;51.728;8.748;2023-05-10T10:29:39;22.60;;;19.75;;
34924;SDS011;21130;51.728;8.748;2023-05-10T10:32:18;21.45;;;19.13;;
34924;SDS011;21130;51.728;8.748;2023-05-10T10:34:50;19.80;;;17.77;;
34924;SDS011;21130;51.728;8.748;2023-05-10T10:37:17;20.88;;;18.75;;
34924;SDS011;21130;51.728;8.748;2023-05-10T10:39:43;20.45;;;18.38;;
34924;SDS011;21130;51.728;8.748;2023-05-10T10:42:10;22.40;;;19.05;;
34924;SDS011;21130;51.728;8.748;2023-05-10T10:44:36;21.23;;;19.10;;
34924;SDS011;21130;51.728;8.748;2023-05-10T10:47:06;22.45;;;20.20;;
34924;SDS011;21130;51.728;8.748;2023-05-10T10:49:42;22.88;;;20.48;;
34924;SDS011;21130;51.728;8.748;2023-05-10T10:52:13;23.70;;;21.17;;
34924;SDS011;21130;51.728;8.748;2023-05-10T10:54:44;24.83;;;21.17;;
34924;SDS011;21130;51.728;8.748;2023-05-10T10:57:19;25.00;;;21.20;;
34924;SDS011;21130;51.728;8.748;2023-05-10T11:00:18;24.52;;;21.02;;
34924;SDS011;21130;51.728;8.748;2023-05-10T11:02:51;23.73;;;20.15;;
34924;SDS011;21130;51.728;8.748;2023-05-10T11:05:26;22.90;;;20.13;;
34924;SDS011;21130;51.728;8.748;2023-05-10T11:08:08;21.23;;;18.70;;
34924;SDS011;21130;51.728;8.748;2023-05-10T11:10:37;21.30;;;18.73;;
34924;SDS011;21130;51.728;8.748;2023-05-10T11:13:04;19.90;;;17.60;;
34924;SDS011;21130;51.728;8.748;2023-05-10T11:15:32;20.33;;;17.67;;
34924;SDS011;21130;51.728;8.748;2023-05-10T11:18:01;20.23;;;17.42;;
34924;SDS011;21130;51.728;8.748;2023-05-10T11:20:43;18.73;;;15.85;;
34924;SDS011;21130;51.728;8.748;2023-05-10T11:23:12;15.98;;;14.27;;
34924;SDS011;21130;51.728;8.748;2023-05-10T11:25:41;16.20;;;14.50;;
34924;SDS011;21130;51.728;8.748;2023-05-10T11:28:09;17.17;;;15.38;;
34924;SDS011;21130;51.728;8.748;2023-05-10T11:30:35;16.60;;;14.80;;
34924;SDS011;21130;51.728;8.748;2023-05-10T11:33:03;18.40;;;16.45;;
34924;SDS011;21130;51.728;8.748;2023-05-10T11:35:31;19.33;;;16.50;;
34924;SDS011;21130;51.728;8.748;2023-05-10T11:38:04;19.52;;;17.42;;
34924;SDS011;21130;51.728;8.748;2023-05-10T11:40:31;19.75;;;17.58;;
34924;SDS011;21130;51.728;8.748;2023-05-10T11:42:58;20.20;;;18.10;;
34924;SDS011;21130;51.728;8.748;2023-05-10T11:45:25;18.38;;;16.45;;
34924;SDS011;21130;51.728;8.748;2023-05-10T11:47:52;19.50;;;16.92;;
34924;SDS011;21130;51.728;8.748;2023-05-10T11:50:20;17.98;;;15.98;;
34924;SDS011;21130;51.728;8.748;2023-05-10T11:52:49;16.73;;;15.02;;
34924;SDS011;21130;51.728;8.748;2023-05-10T11:55:16;16.75;;;15.05;;
34924;SDS011;21130;51.728;8.748;2023-05-10T11:57:43;16.20;;;14.10;;
34924;SDS011;21130;51.728;8.748;2023-05-10T12:00:11;15.07;;;13.45;;
34924;SDS011;21130;51.728;8.748;2023-05-10T12:02:38;14.45;;;13.02;;
34924;SDS011;21130;51.728;8.748;2023-05-10T12:05:05;14.95;;;13.18;;
34924;SDS011;21130;51.728;8.748;2023-05-10T12:13:48;15.98;;;14.27;;
34924;SDS011;21130;51.728;8.748;2023-05-10T12:16:15;16.95;;;15.15;;
34924;SDS011;21130;51.728;8.748;2023-05-10T12:18:43;16.85;;;14.93;;
34924;SDS011;21130;51.728;8.748;2023-05-10T12:21:10;17.23;;;15.43;;
34924;SDS011;21130;51.728;8.748;2023-05-10T12:23:37;17.85;;;15.90;;
34924;SDS011;21130;51.728;8.748;2023-05-10T12:26:04;18.80;;;16.40;;
34924;SDS011;21130;51.728;8.748;2023-05-10T12:28:31;14.07;;;11.63;;
34924;SDS011;21130;51.728;8.748;2023-05-10T12:31:00;10.57;;;9.45;;
34924;SDS011;21130;51.728;8.748;2023-05-10T12:33:27;11.00;;;8.00;;
34924;SDS011;21130;51.728;8.748;2023-05-10T12:36:03;12.77;;;8.73;;
34924;SDS011;21130;51.728;8.748;2023-05-10T12:38:32;9.75;;;7.30;;
34924;SDS011;21130;51.728;8.748;2023-05-10T12:41:00;8.02;;;6.63;;
34924;SDS011;21130;51.728;8.748;2023-05-10T12:43:27;8.07;;;6.10;;
34924;SDS011;21130;51.728;8.748;2023-05-10T12:45:54;7.88;;;6.03;;
34924;SDS011;21130;51.728;8.748;2023-05-10T12:48:22;5.43;;;4.93;;
34924;SDS011;21130;51.728;8.748;2023-05-10T12:50:48;3.83;;;3.50;;
34924;SDS011;21130;51.728;8.748;2023-05-10T12:53:15;4.55;;;3.35;;
34924;SDS011;21130;51.728;8.748;2023-05-10T12:55:42;3.90;;;3.53;;
34924;SDS011;21130;51.728;8.748;2023-05-10T12:58:09;4.38;;;3.28;;
34924;SDS011;21130;51.728;8.748;2023-05-10T13:00:35;4.93;;;3.28;;
34924;SDS011;21130;51.728;8.748;2023-05-10T13:03:03;4.18;;;3.63;;
34924;SDS011;21130;51.728;8.748;2023-05-10T13:05:31;5.07;;;3.78;;
34924;SDS011;21130;51.728;8.748;2023-05-10T13:07:57;3.83;;;3.53;;
34924;SDS011;21130;51.728;8.748;2023-05-10T13:10:24;3.97;;;3.17;;
34924;SDS011;21130;51.728;8.748;2023-05-10T13:12:50;3.95;;;3.05;;
34924;SDS011;21130;51.728;8.748;2023-05-10T13:15:17;4.03;;;3.10;;
34924;SDS011;21130;51.728;8.748;2023-05-10T13:17:44;3.28;;;3.00;;
34924;SDS011;21130;51.728;8.748;2023-05-10T13:20:11;3.42;;;2.60;;
34924;SDS011;21130;51.728;8.748;2023-05-10T13:22:38;3.45;;;2.67;;
34924;SDS011;21130;51.728;8.748;2023-05-10T13:25:05;3.05;;;2.38;;
34924;SDS011;21130;51.728;8.748;2023-05-10T13:27:32;2.55;;;2.30;;
34924;SDS011;21130;51.728;8.748;2023-05-10T13:29:58;2.97;;;2.22;;
34924;SDS011;21130;51.728;8.748;2023-05-10T13:32:25;2.45;;;2.25;;
34924;SDS011;21130;51.728;8.748;2023-05-10T13:34:51;3.20;;;2.70;;
34924;SDS011;21130;51.728;8.748;2023-05-10T13:37:18;3.90;;;2.58;;
34924;SDS011;21130;51.728;8.748;2023-05-10T13:39:45;3.65;;;2.80;;
34924;SDS011;21130;51.728;8.748;2023-05-10T13:42:12;2.78;;;2.58;;
34924;SDS011;21130;51.728;8.748;2023-05-10T13:44:38;4.03;;;2.53;;
34924;SDS011;21130;51.728;8.748;2023-05-10T13:47:05;3.13;;;2.88;;
34924;SDS011;21130;51.728;8.748;2023-05-10T13:49:32;3.85;;;3.40;;
34924;SDS011;21130;51.728;8.748;2023-05-10T13:51:58;5.82;;;3.42;;
34924;SDS011;21130;51.728;8.748;2023-05-10T13:54:30;5.15;;;4.60;;
34924;SDS011;21130;51.728;8.748;2023-05-10T13:56:58;4.50;;;4.10;;
34924;SDS011;21130;51.728;8.748;2023-05-10T13:59:25;4.47;;;4.03;;
34924;SDS011;21130;51.728;8.748;2023-05-10T14:01:51;5.80;;;5.00;;
34924;SDS011;21130;51.728;8.748;2023-05-10T14:04:17;7.40;;;5.40;;
34924;SDS011;21130;51.728;8.748;2023-05-10T14:06:44;7.72;;;6.00;;
34924;SDS011;21130;51.728;8.748;2023-05-10T14:09:11;9.95;;;8.00;;
34924;SDS011;21130;51.728;8.748;2023-05-10T14:11:37;10.40;;;7.82;;
34924;SDS011;21130;51.728;8.748;2023-05-10T14:14:08;8.35;;;7.45;;
34924;SDS011;21130;51.728;8.748;2023-05-10T14:16:34;10.68;;;8.88;;
34924;SDS011;21130;51.728;8.748;2023-05-10T14:19:04;9.35;;;7.72;;
34924;SDS011;21130;51.728;8.748;2023-05-10T14:21:31;10.25;;;7.80;;
34924;SDS011;21130;51.728;8.748;2023-05-10T14:23:58;12.73;;;8.35;;
34924;SDS011;21130;51.728;8.748;2023-05-10T14:26:24;12.63;;;7.57;;
34924;SDS011;21130;51.728;8.748;2023-05-10T14:28:51;13.88;;;9.45;;
34924;SDS011;21130;51.728;8.748;2023-05-10T14:31:19;16.77;;;11.65;;
34924;SDS011;21130;51.728;8.748;2023-05-10T14:33:45;17.77;;;11.82;;
34924;SDS011;21130;51.728;8.748;2023-05-10T14:36:12;16.27;;;12.10;;
34924;SDS011;21130;51.728;8.748;2023-05-10T14:38:39;20.67;;;14.77;;
34924;SDS011;21130;51.728;8.748;2023-05-10T14:41:05;18.30;;;14.05;;
34924;SDS011;21130;51.728;8.748;2023-05-10T14:43:32;20.23;;;14.52;;
34924;SDS011;21130;51.728;8.748;2023-05-10T14:45:58;19.23;;;15.32;;
34924;SDS011;21130;51.728;8.748;2023-05-10T14:48:26;21.65;;;15.80;;